Time;durP1;ratioP1;P1;durP2;ratioP2;P2;SDS_P1;SDS_P2;PMS_P1;PMS_P2;Temp;Humidity;BMP_temperature;BMP_pressure;BME280_temperature;BME280_humidity;BME280_pressure;Samples;Min_cycle;Max_cycle;Signal;HPM_P1;HPM_P2
2021/08/05 00:00:42;;;;;;;12.70;10.38;;;;;;;29.31;61.46;101452.92;1625913;88;21035;-50
2021/08/05 00:03:09;;;;;;;11.48;10.48;;;;;;;29.30;61.59;101454.78;1625854;88;21025;-49
2021/08/05 00:05:38;;;;;;;10.90;9.80;;;;;;;29.30;61.69;101448.56;1625851;88;21100;-49
2021/08/05 00:08:06;;;;;;;11.40;10.40;;;;;;;29.28;61.77;101447.36;1626227;88;21088;-49
2021/08/05 00:10:33;;;;;;;10.98;10.08;;;;;;;29.28;61.84;101446.51;1626247;88;21590;-50
2021/08/05 00:13:00;;;;;;;11.63;10.68;;;;;;;29.27;61.90;101451.50;1626267;88;21076;-49
2021/08/05 00:15:29;;;;;;;11.73;10.35;;;;;;;29.27;61.89;101450.16;1624138;88;21104;-50
2021/08/05 00:17:55;;;;;;;11.63;10.65;;;;;;;29.25;61.97;101452.98;1626240;88;21037;-50
2021/08/05 00:20:22;;;;;;;11.70;10.60;;;;;;;29.25;62.05;101450.78;1626308;88;21040;-49
2021/08/05 00:22:48;;;;;;;12.07;10.90;;;;;;;29.25;62.16;101450.78;1631502;88;21577;-50
2021/08/05 00:25:15;;;;;;;13.38;11.40;;;;;;;29.25;62.19;101448.11;1626299;88;21016;-49
2021/08/05 00:27:43;;;;;;;12.07;10.90;;;;;;;29.25;62.22;101438.72;1620460;88;21069;-50
2021/08/05 00:30:11;;;;;;;12.37;11.05;;;;;;;29.26;62.23;101439.09;1626204;88;21076;-50
2021/08/05 00:32:38;;;;;;;12.05;10.93;;;;;;;29.24;62.22;101435.70;1626159;88;21058;-50
2021/08/05 00:35:06;;;;;;;14.28;11.75;;;;;;;29.26;62.16;101433.25;1626114;88;21039;-50
2021/08/05 00:37:33;;;;;;;11.88;10.78;;;;;;;29.26;62.15;101431.05;1628223;87;21015;-50
2021/08/05 00:40:00;;;;;;;12.25;11.08;;;;;;;29.26;62.06;101425.69;1620822;88;21570;-50
2021/08/05 00:42:27;;;;;;;11.53;10.58;;;;;;;29.26;62.06;101424.35;1626073;88;21553;-50
2021/08/05 00:44:55;;;;;;;11.78;10.68;;;;;;;29.25;62.00;101426.66;1625932;88;21098;-50
2021/08/05 00:47:21;;;;;;;11.25;10.40;;;;;;;29.25;62.04;101418.13;1626305;88;21519;-50
2021/08/05 00:49:48;;;;;;;12.37;11.38;;;;;;;29.25;62.04;101417.28;1626465;88;21004;-49
2021/08/05 00:52:15;;;;;;;12.75;11.53;;;;;;;29.25;62.03;101407.90;1635574;85;21043;-50
2021/08/05 00:54:41;;;;;;;12.18;11.10;;;;;;;29.24;62.04;101408.90;1677130;85;21038;-49
2021/08/05 00:57:08;;;;;;;12.93;11.65;;;;;;;29.23;62.05;101395.98;1677263;85;21660;-51
2021/08/05 00:59:35;;;;;;;11.93;10.82;;;;;;;29.22;62.07;101396.13;1654954;85;21061;-50
2021/08/05 01:02:13;;;;;;;12.18;10.93;;;;;;;29.21;62.16;101383.21;1677535;85;21019;-50
2021/08/05 01:04:40;;;;;;;11.43;10.32;;;;;;;29.20;62.21;101382.87;1672255;85;21023;-49
2021/08/05 01:07:14;;;;;;;12.13;10.93;;;;;;;29.19;62.25;101377.62;1677312;85;21011;-49
2021/08/05 01:10:05;;;;;;;13.15;11.93;;;;;;;29.17;62.23;101379.59;1672419;85;21127;-49
2021/08/05 01:13:06;;;;;;;12.75;11.48;;;;;;;29.17;62.20;101379.11;1677718;85;21535;-50
2021/08/05 01:15:32;;;;;;;12.45;11.12;;;;;;;29.17;62.09;101372.90;1618198;88;21029;-50
2021/08/05 01:18:17;;;;;;;11.88;10.88;;;;;;;29.16;62.01;101375.23;1626141;88;21111;-50
2021/08/05 01:20:45;;;;;;;12.98;11.68;;;;;;;29.15;61.93;101373.05;1573269;89;21094;-49
2021/08/05 01:23:42;;;;;;;13.05;11.85;;;;;;;29.15;61.86;101373.53;1558935;89;21131;-49
2021/08/05 01:26:24;;;;;;;13.20;11.88;;;;;;;29.14;61.82;101371.81;1569102;90;21546;-49
2021/08/05 01:28:51;;;;;;;12.43;11.18;;;;;;;29.14;61.68;101373.16;1552588;90;21117;-49
2021/08/05 01:31:18;;;;;;;12.82;11.12;;;;;;;29.12;61.62;101371.11;1567344;90;21168;-49
2021/08/05 01:33:47;;;;;;;12.65;10.85;;;;;;;29.10;61.58;101367.20;1552869;91;21133;-50
2021/08/05 01:36:13;;;;;;;10.98;10.03;;;;;;;29.10;61.57;101375.75;1535135;92;21116;-50
2021/08/05 01:38:40;;;;;;;11.15;10.13;;;;;;;29.10;61.54;101373.08;1575071;90;21190;-49
2021/08/05 01:41:07;;;;;;;11.45;10.18;;;;;;;29.09;61.50;101368.69;1576233;90;21086;-52
2021/08/05 01:43:36;;;;;;;11.12;10.10;;;;;;;29.09;61.53;101368.69;1544242;91;21611;-49
2021/08/05 01:46:03;;;;;;;11.25;10.15;;;;;;;29.08;61.49;101369.69;1566303;90;21658;-50
2021/08/05 01:48:31;;;;;;;11.00;10.00;;;;;;;29.09;61.46;101367.34;1568693;90;21133;-49
2021/08/05 01:51:00;;;;;;;11.65;10.20;;;;;;;29.08;61.46;101364.33;1565215;90;21485;-49
2021/08/05 01:53:27;;;;;;;11.75;10.18;;;;;;;29.08;61.39;101371.84;1619868;87;21064;-48
2021/08/05 01:55:54;;;;;;;12.05;10.82;;;;;;;29.07;61.31;101374.67;1618723;87;21069;-49
2021/08/05 01:58:21;;;;;;;11.50;10.30;;;;;;;29.06;61.33;101376.50;1626041;87;21607;-48
2021/08/05 02:00:49;;;;;;;12.73;10.90;;;;;;;29.07;61.33;101373.34;1619831;87;21108;-49
2021/08/05 02:03:17;;;;;;;11.60;10.60;;;;;;;29.05;61.34;101378.84;1623064;87;21004;-48
2021/08/05 02:05:58;;;;;;;11.75;10.15;;;;;;;29.05;61.33;101379.33;1585398;88;22426;-49
2021/08/05 02:08:28;;;;;;;;;;;;;;;29.04;61.35;101374.97;1623487;87;21054;-48
2021/08/05 02:10:57;;;;;;;12.80;11.38;;;;;;;29.03;61.47;101370.58;1623463;87;20408;-49
2021/08/05 02:13:28;;;;;;;13.90;12.60;;;;;;;28.98;61.69;101365.14;1625686;87;21207;-48
2021/08/05 02:16:00;;;;;;;14.80;13.18;;;;;;;28.96;61.95;101360.41;1649653;82;21057;-49
2021/08/05 02:18:30;;;;;;;15.43;13.83;;;;;;;28.94;62.13;101364.20;1715003;83;21059;-50
2021/08/05 02:20:58;;;;;;;15.98;14.28;;;;;;;28.92;62.37;101367.51;1617856;87;21576;-49
2021/08/05 02:23:25;;;;;;;16.70;15.05;;;;;;;28.89;62.59;101368.63;1645254;86;21026;-49
2021/08/05 02:25:53;;;;;;;19.62;14.95;;;;;;;28.89;62.90;101365.94;1642426;85;21046;-50
2021/08/05 02:28:23;;;;;;;18.85;16.50;;;;;;;28.89;63.19;101369.14;1632041;85;21034;-49
2021/08/05 02:30:54;;;;;;;18.00;16.20;;;;;;;28.88;63.39;101376.31;1656209;86;21090;-49
2021/08/05 02:33:21;;;;;;;16.23;14.73;;;;;;;28.88;63.40;101364.27;1626263;86;21154;-49
2021/08/05 02:35:47;;;;;;;17.10;15.43;;;;;;;28.88;63.30;101370.10;1624892;86;21054;-48
2021/08/05 02:38:14;;;;;;;18.55;15.50;;;;;;;28.87;63.33;101367.91;1643264;86;21082;-50
2021/08/05 02:40:42;;;;;;;17.80;15.80;;;;;;;28.88;63.43;101364.75;1646983;86;21589;-50
2021/08/05 02:43:10;;;;;;;13.78;12.37;;;;;;;28.88;63.57;101366.08;1629406;85;21514;-50
2021/08/05 02:45:37;;;;;;;11.40;10.30;;;;;;;28.90;63.67;101366.80;1647661;85;21148;-49
2021/08/05 02:48:07;;;;;;;11.12;10.15;;;;;;;28.90;63.69;101367.66;1602009;87;21563;-50
2021/08/05 02:50:34;;;;;;;10.48;9.45;;;;;;;28.89;63.65;101369.95;1574507;89;21039;-50
2021/08/05 02:53:01;;;;;;;11.60;10.05;;;;;;;28.90;63.52;101377.03;1630823;87;21013;-50
2021/08/05 02:55:28;;;;;;;12.13;10.93;;;;;;;28.89;63.49;101379.34;1627639;87;21127;-50
2021/08/05 02:57:56;;;;;;;10.15;9.15;;;;;;;28.88;63.52;101372.30;1624952;86;21159;-49
2021/08/05 03:00:24;;;;;;;11.45;10.32;;;;;;;28.91;63.54;101375.20;1625624;88;21200;-50
2021/08/05 03:02:50;;;;;;;13.08;9.83;;;;;;;28.92;63.55;101367.51;1627243;87;21052;-50
2021/08/05 03:05:17;;;;;;;10.30;9.43;;;;;;;28.93;63.57;101372.72;1619500;87;21558;-50
2021/08/05 03:07:44;;;;;;;12.15;10.08;;;;;;;28.96;63.65;101373.80;1623638;87;21714;-50
2021/08/05 03:10:15;;;;;;;16.65;10.63;;;;;;;28.96;63.75;101377.82;1621769;87;21080;-51
2021/08/05 03:12:43;;;;;;;11.53;10.30;;;;;;;28.97;63.90;101371.46;1623449;87;21076;-50
2021/08/05 03:15:12;;;;;;;13.98;11.18;;;;;;;28.98;63.99;101370.49;1623786;87;21149;-50
2021/08/05 03:17:38;;;;;;;12.58;10.35;;;;;;;29.01;64.00;101372.55;1625596;85;21038;-51
2021/08/05 03:20:06;;;;;;;10.28;9.33;;;;;;;29.02;63.95;101371.58;1677340;85;21019;-50
2021/08/05 03:22:33;;;;;;;10.45;9.45;;;;;;;29.04;63.96;101366.41;1677274;85;21534;-50
2021/08/05 03:24:59;;;;;;;9.68;8.78;;;;;;;29.05;63.94;101367.27;1677039;85;21011;-50
2021/08/05 03:27:26;;;;;;;10.60;9.40;;;;;;;29.05;63.99;101360.56;1677300;85;21117;-50
2021/08/05 03:29:52;;;;;;;12.23;9.73;;;;;;;29.06;64.06;101363.10;1665361;85;21054;-50
2021/08/05 03:32:19;;;;;;;11.68;9.60;;;;;;;29.07;64.07;101351.90;1677249;85;21483;-50
2021/08/05 03:34:46;;;;;;;9.38;8.40;;;;;;;29.09;64.09;101352.13;1677249;85;21035;-50
2021/08/05 03:37:12;;;;;;;18.17;9.35;;;;;;;29.10;63.94;101351.64;1677189;85;21546;-50
2021/08/05 03:39:39;;;;;;;9.55;8.65;;;;;;;29.11;63.85;101352.83;1676992;85;21059;-50
2021/08/05 03:42:06;;;;;;;9.85;8.88;;;;;;;29.13;63.80;101352.69;1678102;85;21534;-50
2021/08/05 03:44:34;;;;;;;10.82;9.73;;;;;;;29.14;63.75;101347.70;1678632;84;21051;-50
2021/08/05 03:47:01;;;;;;;9.80;8.85;;;;;;;29.18;63.80;101345.13;1677231;85;21082;-50
2021/08/05 03:49:29;;;;;;;9.95;8.95;;;;;;;29.19;63.77;101341.44;1677356;85;21042;-50
2021/08/05 03:51:56;;;;;;;12.65;10.30;;;;;;;29.19;63.73;101339.62;1677505;85;21027;-50
2021/08/05 03:54:23;;;;;;;13.10;8.93;;;;;;;29.21;63.73;101338.13;1677348;85;21030;-50
2021/08/05 03:56:50;;;;;;;11.48;9.48;;;;;;;29.22;63.64;101331.80;1677148;85;21031;-50
2021/08/05 03:59:17;;;;;;;10.78;9.68;;;;;;;29.24;63.56;101335.19;1677233;85;21106;-50
2021/08/05 04:01:45;;;;;;;10.58;9.00;;;;;;;29.24;63.51;101335.19;1677393;84;21051;-50
2021/08/05 04:04:11;;;;;;;10.68;9.53;;;;;;;29.25;63.47;101335.04;1677162;85;21035;-50
2021/08/05 04:06:38;;;;;;;12.50;10.82;;;;;;;29.25;63.50;101338.20;1677171;85;21534;-50
2021/08/05 04:09:05;;;;;;;21.97;10.75;;;;;;;29.26;63.53;101343.94;1676023;85;21043;-50
2021/08/05 04:11:31;;;;;;;14.43;12.03;;;;;;;29.25;63.47;101343.56;1678225;85;21041;-50
2021/08/05 04:13:58;;;;;;;14.10;11.08;;;;;;;29.27;63.49;101340.25;1677702;85;21105;-49
2021/08/05 04:16:24;;;;;;;12.95;9.75;;;;;;;29.29;63.42;101343.64;1677093;85;21090;-50
2021/08/05 04:18:52;;;;;;;13.80;10.93;;;;;;;29.30;63.42;101348.03;1677281;85;21090;-49
2021/08/05 04:21:18;;;;;;;12.93;10.88;;;;;;;29.31;63.37;101346.55;1679871;85;21075;-50
2021/08/05 04:23:45;;;;;;;13.68;11.88;;;;;;;29.32;63.28;101354.10;1674554;85;21094;-53
2021/08/05 04:26:14;;;;;;;14.75;11.35;;;;;;;29.33;63.23;101354.44;1677202;85;21121;-50
2021/08/05 04:28:40;;;;;;;11.22;10.15;;;;;;;29.34;63.19;101354.81;1677176;84;21038;-49
2021/08/05 04:31:07;;;;;;;10.90;9.53;;;;;;;29.36;63.17;101354.17;1677137;85;21054;-49
2021/08/05 04:33:34;;;;;;;14.70;9.30;;;;;;;29.39;63.16;101345.34;1677436;85;21016;-50
2021/08/05 04:36:03;;;;;;;10.80;9.63;;;;;;;29.43;62.98;101348.63;1677110;85;21082;-50
2021/08/05 04:38:30;;;;;;;9.48;8.58;;;;;;;29.47;62.97;101358.08;1677126;85;21063;-50
2021/08/05 04:40:57;;;;;;;11.38;9.35;;;;;;;29.51;62.85;101350.11;1677209;85;21083;-50
2021/08/05 04:43:23;;;;;;;11.10;8.83;;;;;;;29.55;62.79;101351.52;1677201;85;21031;-50
2021/08/05 04:45:50;;;;;;;15.85;9.25;;;;;;;29.61;62.66;101353.63;1677357;85;21063;-50
2021/08/05 04:48:16;;;;;;;11.85;9.33;;;;;;;29.66;62.55;101352.70;1677246;85;21023;-50
2021/08/05 04:50:46;;;;;;;10.58;9.03;;;;;;;29.72;62.40;101357.50;1677625;85;21030;-50
2021/08/05 04:53:16;;;;;;;9.30;8.40;;;;;;;29.77;62.21;101359.80;1677223;85;21015;-50
2021/08/05 04:55:42;;;;;;;9.13;7.85;;;;;;;29.82;62.10;101348.98;1674599;85;21538;-50
2021/08/05 04:58:08;;;;;;;9.70;7.92;;;;;;;29.86;62.01;101354.45;1677404;85;21078;-49
2021/08/05 05:00:40;;;;;;;11.28;9.00;;;;;;;29.91;61.96;101345.94;1677283;85;21586;-49
2021/08/05 05:03:08;;;;;;;12.05;8.58;;;;;;;29.96;61.99;101347.71;1677023;85;21082;-49
2021/08/05 05:05:35;;;;;;;11.35;7.87;;;;;;;29.99;61.91;101346.92;1677331;85;21080;-49
2021/08/05 05:08:20;;;;;;;20.15;14.85;;;;;;;30.04;61.69;101351.38;1677399;85;21050;-49
2021/08/05 05:10:51;;;;;;;16.42;12.75;;;;;;;30.08;61.55;101352.78;1673443;85;21055;-49
2021/08/05 05:13:18;;;;;;;14.78;11.00;;;;;;;30.15;61.51;101345.83;1674521;85;21583;-50
2021/08/05 05:15:46;;;;;;;13.90;11.08;;;;;;;30.20;61.43;101340.88;1674774;85;21606;-50
2021/08/05 05:18:14;;;;;;;12.13;10.38;;;;;;;30.25;61.30;101344.48;1676698;85;21023;-49
2021/08/05 05:20:44;;;;;;;10.78;9.78;;;;;;;30.31;61.19;101334.53;1677018;85;21195;-49
2021/08/05 05:23:10;;;;;;;10.32;8.88;;;;;;;30.37;60.95;101344.20;1677307;85;21514;-49
2021/08/05 05:25:38;;;;;;;8.38;7.67;;;;;;;30.42;60.70;101341.90;1670883;85;21050;-49
2021/08/05 05:28:05;;;;;;;8.35;7.70;;;;;;;30.48;60.53;101339.97;1677244;85;20991;-49
2021/08/05 05:30:33;;;;;;;14.30;9.93;;;;;;;30.53;60.41;101344.41;1677286;85;21058;-48
2021/08/05 05:32:59;;;;;;;11.93;9.23;;;;;;;30.58;60.36;101340.44;1677300;85;21050;-50
2021/08/05 05:35:26;;;;;;;21.00;18.87;;;;;;;30.63;60.13;101338.14;1677244;85;21558;-51
2021/08/05 05:37:55;;;;;;;23.77;21.42;;;;;;;30.70;60.12;101336.56;1677343;85;21090;-49
2021/08/05 05:40:23;;;;;;;10.93;9.83;;;;;;;30.80;60.03;101332.84;1677177;85;21055;-49
2021/08/05 05:42:49;;;;;;;8.60;7.80;;;;;;;30.93;59.64;101340.09;1677470;85;21149;-49
2021/08/05 05:45:18;;;;;;;11.93;10.13;;;;;;;31.05;59.01;101335.34;1677223;85;21571;-50
2021/08/05 05:47:45;;;;;;;19.05;17.25;;;;;;;31.14;58.50;101338.48;1677230;85;20975;-50
2021/08/05 05:50:13;;;;;;;9.95;9.13;;;;;;;31.21;58.05;101338.20;1677046;85;21023;-50
2021/08/05 05:52:40;;;;;;;9.00;7.83;;;;;;;31.26;57.72;101331.36;1677373;85;21035;-49
2021/08/05 05:55:07;;;;;;;9.83;7.10;;;;;;;31.34;57.51;101331.97;1677658;84;21487;-48
2021/08/05 05:57:34;;;;;;;8.28;7.58;;;;;;;31.42;57.08;101335.26;1677706;85;21089;-50
2021/08/05 06:00:01;;;;;;;8.65;7.65;;;;;;;31.49;56.80;101331.79;1677305;85;21625;-49
2021/08/05 06:02:30;;;;;;;9.30;7.97;;;;;;;31.57;56.59;101335.08;1671057;85;21054;-49
2021/08/05 06:04:57;;;;;;;8.58;7.87;;;;;;;31.65;56.18;101336.00;1676998;85;21129;-50
2021/08/05 06:07:23;;;;;;;14.25;12.95;;;;;;;31.72;55.88;101338.89;1667971;85;21513;-50
2021/08/05 06:09:51;;;;;;;38.25;34.40;;;;;;;31.80;55.67;101339.80;1675699;84;21086;-49
2021/08/05 06:12:18;;;;;;;21.30;19.20;;;;;;;31.87;55.64;101334.16;1677288;85;21483;-49
2021/08/05 06:14:46;;;;;;;12.68;11.68;;;;;;;31.95;55.42;101331.55;1677219;85;21046;-49
2021/08/05 06:17:13;;;;;;;14.70;13.22;;;;;;;32.01;55.25;101330.92;1677193;85;21094;-50
2021/08/05 06:19:40;;;;;;;20.08;18.02;;;;;;;32.08;55.17;101334.69;1677260;85;21468;-50
2021/08/05 06:22:10;;;;;;;14.43;13.03;;;;;;;32.13;55.04;101329.33;1677251;85;21082;-50
2021/08/05 06:24:35;;;;;;;8.73;8.03;;;;;;;32.19;55.00;101331.39;1676947;85;21058;-49
2021/08/05 06:27:03;;;;;;;9.43;7.80;;;;;;;32.23;54.71;101336.30;1677015;85;21547;-50
2021/08/05 06:29:32;;;;;;;9.10;7.72;;;;;;;32.25;54.46;101337.48;1677350;85;21090;-50
2021/08/05 06:31:59;;;;;;;8.53;7.55;;;;;;;32.28;54.47;101327.72;1660166;84;21534;-50
2021/08/05 06:34:25;;;;;;;7.55;6.85;;;;;;;32.29;54.41;101325.39;1677878;85;21523;-49
2021/08/05 06:36:52;;;;;;;7.00;6.28;;;;;;;32.32;54.50;101327.74;1678117;84;21530;-50
2021/08/05 06:39:20;;;;;;;8.20;7.40;;;;;;;32.33;54.40;101325.41;1677023;85;21530;-49
2021/08/05 06:41:47;;;;;;;8.73;7.37;;;;;;;32.34;54.39;101323.04;1674569;85;21506;-51
2021/08/05 06:44:14;;;;;;;19.70;17.90;;;;;;;32.33;54.40;101317.33;1676618;85;21003;-49
2021/08/05 06:46:41;;;;;;;34.27;31.05;;;;;;;32.32;54.27;101314.28;1677158;85;21042;-49
2021/08/05 06:49:08;;;;;;;12.18;10.93;;;;;;;32.30;54.51;101314.45;1676989;85;21095;-49
2021/08/05 06:51:35;;;;;;;10.40;9.45;;;;;;;32.29;54.75;101310.58;1676794;85;21119;-49
2021/08/05 06:54:02;;;;;;;10.03;9.13;;;;;;;32.29;54.69;101315.96;1676951;85;21070;-49
2021/08/05 06:56:29;;;;;;;7.92;7.22;;;;;;;32.29;54.12;101311.92;1676992;85;21130;-48
2021/08/05 06:58:55;;;;;;;8.55;7.70;;;;;;;32.30;53.41;101317.63;1677168;85;21094;-49
2021/08/05 07:01:23;;;;;;;6.78;6.20;;;;;;;32.30;53.26;101312.25;1677027;85;21539;-49
2021/08/05 07:03:49;;;;;;;8.18;7.37;;;;;;;32.31;52.82;101313.95;1676901;85;21590;-49
2021/08/05 07:06:17;;;;;;;7.08;6.45;;;;;;;32.32;52.74;101315.63;1678222;85;21067;-50
2021/08/05 07:08:44;;;;;;;9.10;6.90;;;;;;;32.34;52.38;101309.58;1676002;85;21144;-50
2021/08/05 07:11:12;;;;;;;8.85;6.03;;;;;;;32.35;52.40;101309.94;1677243;85;21070;-49
2021/08/05 07:13:40;;;;;;;11.08;7.33;;;;;;;32.38;51.93;101314.98;1677025;85;21003;-49
2021/08/05 07:16:07;;;;;;;17.25;15.48;;;;;;;32.40;51.74;101315.66;1677248;85;21019;-49
2021/08/05 07:18:35;;;;;;;8.33;7.58;;;;;;;32.43;51.63;101309.97;1676866;85;21055;-48
2021/08/05 07:21:01;;;;;;;7.45;6.50;;;;;;;32.47;51.47;101319.45;1677224;85;21019;-49
2021/08/05 07:23:28;;;;;;;7.20;6.60;;;;;;;32.52;51.68;101311.75;1677234;85;21542;-49
2021/08/05 07:25:55;;;;;;;9.13;7.22;;;;;;;32.57;51.75;101313.44;1677076;85;21195;-50
2021/08/05 07:28:22;;;;;;;6.90;6.30;;;;;;;32.60;51.27;101309.09;1676967;84;21035;-49
2021/08/05 07:30:51;;;;;;;10.85;6.33;;;;;;;32.64;51.08;101311.80;1677198;85;21059;-49
2021/08/05 07:33:18;;;;;;;8.75;7.97;;;;;;;32.68;51.02;101310.46;1672498;85;21066;-49
2021/08/05 07:35:45;;;;;;;6.42;5.83;;;;;;;32.72;51.04;101313.17;1677356;85;21570;-48
2021/08/05 07:38:12;;;;;;;7.58;6.87;;;;;;;32.75;50.72;101310.13;1677196;85;21035;-49
2021/08/05 07:40:38;;;;;;;9.05;8.15;;;;;;;32.79;50.61;101307.45;1677160;85;21055;-49
2021/08/05 07:43:05;;;;;;;7.42;6.72;;;;;;;32.80;50.51;101299.72;1676998;85;21102;-49
2021/08/05 07:45:33;;;;;;;8.43;6.60;;;;;;;32.83;50.73;101296.68;1672180;85;21074;-49
2021/08/05 07:48:00;;;;;;;19.82;16.80;;;;;;;32.84;50.96;101287.61;1677246;85;21019;-49
2021/08/05 07:50:27;;;;;;;21.80;19.50;;;;;;;32.86;51.11;101285.59;1676230;85;21054;-49
2021/08/05 07:52:54;;;;;;;10.38;9.38;;;;;;;32.88;51.51;101286.27;1676835;85;21066;-49
2021/08/05 07:55:20;;;;;;;9.08;8.28;;;;;;;32.91;51.80;101282.41;1677128;85;21015;-49
2021/08/05 07:57:47;;;;;;;8.83;6.72;;;;;;;32.95;51.77;101281.92;1671136;85;21075;-50
2021/08/05 08:00:16;;;;;;;15.78;12.73;;;;;;;32.97;51.55;101280.40;1678396;84;21126;-49
2021/08/05 08:02:42;;;;;;;9.03;8.23;;;;;;;33.00;51.35;101282.28;1677641;85;21083;-49
2021/08/05 08:05:13;;;;;;;8.15;7.45;;;;;;;33.05;51.02;101285.84;1677174;85;21002;-50
2021/08/05 08:07:39;;;;;;;10.08;6.83;;;;;;;33.07;51.15;101286.02;1672891;85;21062;-48
2021/08/05 08:10:06;;;;;;;7.58;6.90;;;;;;;33.11;50.86;101281.13;1676934;85;21511;-48
2021/08/05 08:12:34;;;;;;;10.40;7.22;;;;;;;33.12;50.85;101279.61;1677052;85;21538;-49
2021/08/05 08:15:04;;;;;;;6.70;6.10;;;;;;;33.15;50.78;101280.64;1676693;85;21082;-49
2021/08/05 08:17:32;;;;;;;10.30;9.40;;;;;;;33.17;50.58;101284.02;1676813;85;21039;-50
2021/08/05 08:20:00;;;;;;;9.60;7.22;;;;;;;33.20;50.58;101276.09;1677200;85;21511;-49
2021/08/05 08:22:26;;;;;;;8.23;6.67;;;;;;;33.23;50.60;101275.25;1671608;85;21047;-49
2021/08/05 08:24:56;;;;;;;11.95;7.70;;;;;;;33.26;50.55;101272.20;1676870;85;21003;-49
2021/08/05 08:27:22;;;;;;;9.90;7.35;;;;;;;33.30;50.62;101278.13;1677362;85;21046;-49
2021/08/05 08:29:49;;;;;;;14.50;6.60;;;;;;;33.33;50.59;101278.63;1677035;85;21059;-49
2021/08/05 08:32:16;;;;;;;8.20;6.67;;;;;;;33.36;50.57;101271.56;1677540;85;21527;-49
2021/08/05 08:34:43;;;;;;;6.92;6.33;;;;;;;33.39;50.40;101267.66;1676956;85;21523;-50
2021/08/05 08:37:10;;;;;;;8.70;7.85;;;;;;;33.40;50.21;101265.31;1677398;85;21054;-49
2021/08/05 08:39:37;;;;;;;8.45;7.65;;;;;;;33.42;50.24;101262.80;1677030;85;21031;-48
2021/08/05 08:42:04;;;;;;;9.43;6.95;;;;;;;33.45;50.23;101263.79;1677333;85;21031;-49
2021/08/05 08:44:31;;;;;;;7.80;6.70;;;;;;;33.48;50.29;101258.07;1677240;85;21035;-49
2021/08/05 08:46:59;;;;;;;8.08;7.25;;;;;;;33.50;49.99;101257.42;1648431;85;21042;-48
2021/08/05 08:49:26;;;;;;;8.13;7.33;;;;;;;33.51;49.99;101256.93;1677346;85;21499;-49
2021/08/05 08:51:55;;;;;;;14.47;13.08;;;;;;;33.52;50.21;101255.91;1677198;85;21147;-48
2021/08/05 08:54:22;;;;;;;9.88;8.43;;;;;;;33.52;50.32;101254.05;1665138;85;21503;-49
2021/08/05 08:56:48;;;;;;;9.93;7.53;;;;;;;33.52;50.50;101255.91;1677557;85;20998;-49
2021/08/05 08:59:15;;;;;;;9.13;7.87;;;;;;;33.51;50.54;101257.75;1677207;85;21078;-49
2021/08/05 09:01:43;;;;;;;9.33;7.40;;;;;;;33.52;50.59;101255.91;1658616;85;21050;-47
2021/08/05 09:04:10;;;;;;;8.70;6.10;;;;;;;33.51;50.74;101257.75;1677466;85;21558;-48
2021/08/05 09:06:37;;;;;;;7.42;6.40;;;;;;;33.51;50.41;101256.40;1677342;85;21030;-48
2021/08/05 09:09:05;;;;;;;9.38;7.33;;;;;;;33.53;50.10;101253.55;1677424;85;21102;-49
2021/08/05 09:11:33;;;;;;;10.13;7.35;;;;;;;33.53;50.12;101257.07;1677226;85;21600;-48
2021/08/05 09:14:01;;;;;;;10.50;6.95;;;;;;;33.51;49.75;101253.70;1677052;85;21058;-48
2021/08/05 09:16:30;;;;;;;8.63;7.08;;;;;;;33.50;49.72;101253.38;1677268;85;21075;-48
2021/08/05 09:19:14;;;;;;;8.60;7.28;;;;;;;33.49;49.57;101251.67;1677194;85;21027;-48
2021/08/05 09:22:01;;;;;;;8.30;7.53;;;;;;;33.48;49.80;101255.38;1677368;85;21046;-48
2021/08/05 09:24:28;;;;;;;16.65;13.43;;;;;;;33.48;49.65;101257.22;1616070;88;21111;-49
2021/08/05 09:26:57;;;;;;;10.55;9.55;;;;;;;33.46;49.75;101244.41;1616207;87;21061;-49
2021/08/05 09:29:24;;;;;;;15.55;9.48;;;;;;;33.45;49.62;101248.95;1604947;89;21514;-49
2021/08/05 09:31:58;;;;;;;8.35;7.12;;;;;;;33.44;49.68;101248.62;1615819;89;21069;-49
2021/08/05 09:34:39;;;;;;;7.95;7.15;;;;;;;33.42;49.86;101245.26;1610562;89;21521;-49
2021/08/05 09:37:08;;;;;;;9.28;7.22;;;;;;;33.40;49.93;101242.38;1645889;85;21589;-49
2021/08/05 09:39:37;;;;;;;7.47;6.78;;;;;;;33.37;49.47;101240.86;1658841;86;21016;-49
2021/08/05 09:42:13;;;;;;;7.10;6.40;;;;;;;33.36;50.51;101245.08;1657192;85;21051;-49
2021/08/05 09:44:46;;;;;;;6.62;6.03;;;;;;;33.35;50.41;101248.28;1654408;85;21092;-48
2021/08/05 09:47:18;;;;;;;10.78;6.60;;;;;;;33.38;50.33;101247.95;1662228;85;21048;-50
2021/08/05 09:49:53;;;;;;;7.20;6.40;;;;;;;33.40;50.39;101249.98;1659652;85;21539;-52
2021/08/05 09:52:30;;;;;;;8.35;6.05;;;;;;;33.44;50.45;101243.23;1659541;85;21564;-49
2021/08/05 09:54:59;;;;;;;7.60;6.70;;;;;;;33.48;50.37;101247.28;1664342;85;21108;-49
2021/08/05 09:57:35;;;;;;;7.72;6.30;;;;;;;33.54;50.01;101239.89;1662739;86;21088;-51
2021/08/05 10:00:08;;;;;;;7.95;6.62;;;;;;;33.58;49.80;101236.33;1649794;85;21075;-50
2021/08/05 10:02:47;;;;;;;6.53;5.92;;;;;;;33.60;49.84;101233.80;1661369;86;21225;-49
2021/08/05 10:05:21;;;;;;;10.47;6.10;;;;;;;33.60;49.48;101235.16;1661356;86;21108;-50
2021/08/05 10:07:58;;;;;;;19.48;17.25;;;;;;;33.59;49.20;101232.63;1661074;85;21068;-51
2021/08/05 10:10:29;;;;;;;13.88;10.35;;;;;;;33.56;49.28;101233.81;1636099;87;21054;-49
2021/08/05 10:13:00;;;;;;;8.30;7.33;;;;;;;33.53;48.35;101236.83;1608913;87;21170;-49
2021/08/05 10:15:28;;;;;;;13.43;10.88;;;;;;;33.51;48.68;101227.25;1647482;86;21101;-49
2021/08/05 10:18:00;;;;;;;11.15;8.25;;;;;;;33.48;49.06;101227.54;1644844;87;21141;-49
2021/08/05 10:20:29;;;;;;;8.88;7.67;;;;;;;33.44;48.26;101224.34;1639346;87;21086;-49
2021/08/05 10:22:57;;;;;;;7.80;6.93;;;;;;;33.41;48.61;101227.37;1620133;86;21115;-49
2021/08/05 10:25:25;;;;;;;16.17;13.10;;;;;;;33.37;50.07;101228.72;1618008;87;21367;-49
2021/08/05 10:27:53;;;;;;;10.18;9.18;;;;;;;33.36;50.08;101227.05;1625767;87;20991;-50
2021/08/05 10:30:20;;;;;;;8.25;6.95;;;;;;;33.36;50.68;101221.66;1619225;88;21077;-49
2021/08/05 10:32:48;;;;;;;12.78;6.83;;;;;;;33.37;50.89;101227.38;1630762;87;21018;-48
2021/08/05 10:35:15;;;;;;;11.53;6.78;;;;;;;33.38;51.11;101220.98;1619668;87;21121;-50
2021/08/05 10:37:42;;;;;;;8.88;6.90;;;;;;;33.40;51.38;101213.56;1617183;88;21070;-50
2021/08/05 10:40:11;;;;;;;7.70;6.25;;;;;;;33.43;51.31;101214.55;1624967;87;21093;-49
2021/08/05 10:42:43;;;;;;;11.63;7.47;;;;;;;33.46;51.23;101210.18;1622107;88;21088;-50
2021/08/05 10:45:13;;;;;;;9.00;6.90;;;;;;;33.47;51.15;101205.10;1621043;87;21038;-49
2021/08/05 10:47:40;;;;;;;7.47;5.80;;;;;;;33.50;51.48;101202.11;1624292;87;21491;-49
2021/08/05 10:50:09;;;;;;;7.92;5.53;;;;;;;33.54;51.62;101194.02;1636923;85;21114;-49
2021/08/05 10:52:39;;;;;;;6.62;5.87;;;;;;;33.57;51.41;101193.66;1670211;84;21031;-49
2021/08/05 10:55:22;;;;;;;8.68;6.00;;;;;;;33.59;51.60;101187.58;1690768;83;21001;-49
2021/08/05 10:58:28;;;;;;;10.08;5.85;;;;;;;33.64;51.70;101186.56;1649214;85;21039;-49
2021/08/05 11:01:00;;;;;;;6.25;5.65;;;;;;;33.70;51.48;101185.53;1671655;84;21069;-50
2021/08/05 11:03:37;;;;;;;6.87;5.17;;;;;;;33.76;51.71;101179.47;1665369;85;21019;-49
2021/08/05 11:06:25;;;;;;;6.25;5.65;;;;;;;33.81;51.56;101177.08;1592798;88;21552;-49
2021/08/05 11:08:52;;;;;;;6.10;5.58;;;;;;;33.85;51.22;101181.11;1597056;88;21091;-49
2021/08/05 11:11:26;;;;;;;14.58;8.05;;;;;;;33.90;51.37;101173.34;1594445;88;21058;-49
2021/08/05 11:14:06;;;;;;;8.60;7.25;;;;;;;33.93;51.47;101171.14;1598490;87;21665;-49
2021/08/05 11:17:00;;;;;;;6.60;6.00;;;;;;;33.98;51.47;101173.31;1585154;89;21037;-49
2021/08/05 11:19:33;;;;;;;6.33;5.72;;;;;;;34.02;51.39;101170.64;1594256;89;21082;-49
2021/08/05 11:22:31;;;;;;;9.35;5.75;;;;;;;34.05;51.30;101171.62;1590849;89;21065;-49
2021/08/05 11:24:58;;;;;;;5.33;4.83;;;;;;;34.07;51.24;101174.98;1589242;89;21086;-49